BIKF Airport Information

Runway Information
Runway 01 Length 10020 ft width 197 ft
Elevation 135 ft Threshold ft Heading 0
Runway 19 Length 10020 ft Width 197 ft
Elevation 161 ft Threshold ft Heading 180
Runway 10 Length 10056 ft width 197 ft
Elevation 109 ft Threshold 43 ft Heading 90
Runway 28 Length 10056 ft Width 197 ft
Elevation 168 ft Threshold 43 ft Heading 270
Airport Frequencies
Type A/G Name AIR GND Frequency 131.9 MHZ
Type APP Name APP Frequency 119.3 MHZ
Type ATIS Name ATIS Frequency 128.3 MHZ
Type DEP Name DEP Frequency 119.3 MHZ
Type GND Name GND Frequency 121.9 MHZ
Type OPS Name BASE OPS Frequency 129 MHZ
Type PMSV Name PMSV METR Frequency 125 MHZ
Type TWR Name TWR Frequency 118.3 MHZ
Airport Navaids
Type VORTAC Name Keflavik Frequency 112000 KHZ
Type NDB Name Keflavik Frequency 392 KHZ
Type NDB Name Oscar Kilo Frequency 364 KHZ
Airport Weather Information & NOTAM
ADDS - METARS form results

(2145 UTC 14 August 2022)
Data provider http://aviationweather.gov/metar/data/
 
METAR text: BIKF 142130Z 01010KT 9999 FEW024 SCT042 09/05 Q1011
Conditions at: BIKF (KEFLAVIK (CIV/MI, IS) observed 2130 UTC 14 August 2022
Temperature: 9.0°C (48°F)
Dewpoint: 5.0°C (41°F) [RH = 76%]
Pressure (altimeter): 29.85 inches Hg (1011.0 mb)
Winds: from the N (10 degrees) at 12 MPH (10 knots; 5.1 m/s)
Visibility: 6 or more miles (10+ km)
Ceiling: at least 12,000 feet AGL
Clouds: few clouds at 2400 feet AGL
scattered clouds at 4200 feet AGL
Weather: no significant weather observed at this time

METAR text: BIKF 142100Z 36009KT 9999 FEW022 SCT034 09/05 Q1011
Conditions at: BIKF (KEFLAVIK (CIV/MI, IS) observed 2100 UTC 14 August 2022
Temperature: 9.0°C (48°F)
Dewpoint: 5.0°C (41°F) [RH = 76%]
Pressure (altimeter): 29.85 inches Hg (1011.0 mb)
Winds: from the N (360 degrees) at 10 MPH (9 knots; 4.6 m/s)
Visibility: 6 or more miles (10+ km)
Ceiling: at least 12,000 feet AGL
Clouds: few clouds at 2200 feet AGL
scattered clouds at 3400 feet AGL
Weather: no significant weather observed at this time

Forecast for: BIKF (KEFLAVIK (CIV/MI, IS)
Text: TAF BIKF 141934Z 1421/1521 35012KT 9999 FEW020 TX11/1513Z TN05/1506Z
Forecast period: 2100 UTC 14 August 2022 to 2100 UTC 15 August 2022
Forecast type: FROM: standard forecast or significant change
Winds: from the N (350 degrees) at 14 MPH (12 knots; 6.2 m/s)
Visibility: 6 or more miles (10+ km)
Ceiling: at least 12,000 feet AGL
Clouds: few clouds at 2000 feet AGL
Weather: no significant weather forecast for this period